Aviation Digital Data Service (ADDS)

Output produced by METARs form (1132 UTC 19 January 2019)
found at http://www.aviationweather.gov/metar/data/
 
KANW 191115Z AUTO 00000KT 10SM CLR M17/M18 A3029 RMK AO2 T11681185
KBVN 191115Z AUTO 35014G18KT 10SM -SN SCT012 OVC070 M13/M15 A3030 RMK AO2 T11281151
KAIA 191053Z AUTO 00000KT 10SM OVC010 M09/M11 A3019 RMK AO2 SLP276 T10891111 $
KAIA 191120Z 1912/2012 02008KT P6SM OVC010 
     FM191700 29010KT P6SM SKC
       
KAUH 191115Z AUTO 36014KT 10SM BKN014 OVC070 M11/M13 A3026 RMK AO2 T11151135
KBIE 191115Z AUTO 36015G22KT 10SM OVC014 M11/M13 A3023 RMK AO2 T11101134 PWINO
KBBW 191053Z AUTO 34012KT 10SM BKN060 M13/M16 A3026 RMK AO2 SLP293 T11331156
KCDR 191123Z AUTO 14003KT 10SM SCT016 OVC070 M08/M11 A3021 RMK AO2 T10831106 $
KCDR 191120Z 1912/2012 00000KT P6SM OVC015 
     FM191400 VRB04KT P6SM SCT020 BKN030 
     FM191600 28008KT P6SM SKC
       
KOLU 191056Z AUTO 35014G21KT 8SM -SN BKN017 OVC080 M12/M15 A3032 RMK AO2 SLP296 P0000 T11221150 FZRANO
KFNB 191128Z AUTO 35018G34KT 10SM OVC015 M11/M14 A3015 RMK AO2 PK WND 35034/1120 SNE01 P0000 T11061139 $
KFET 191115Z AUTO 35009G16KT 10SM BKN015 M12/M15 A3031 RMK AO2 T11251152
KGRN 191115Z AUTO 25003KT 10SM OVC017 M09/M12 A3020 RMK AO2 T10951119
KGRI 191053Z AUTO 35018KT 10SM FEW014 OVC065 M12/M14 A3027 RMK AO2 PK WND 35026/1023 SLP288 T11171139
KGRI 191120Z 1912/2012 36016G20KT P6SM SCT015 BKN080 
     FM191500 35014KT P6SM SCT100 
     FM192000 35006KT P6SM SKC 
     FM200000 VRB03KT P6SM SKC 
     FM200600 16006KT P6SM SCT200
       
KHSI 191053Z AUTO 36018KT 10SM SCT014 OVC065 M10/M13 A3025 RMK AO2 PK WND 01027/1009 SLP277 T11001133
KHJH 191115Z AUTO 36015G21KT 10SM OVC017 M11/M13 A3024 RMK AO2 T11081135
KHDE 191115Z AUTO 36008KT 10SM SCT014 OVC055 M11/M12 A3025 RMK AO2 T11101125
KIML 191053Z AUTO 35013KT 10SM OVC023 M08/M13 A3022 RMK AO2 SLP276 T10781128
KEAR 191127Z AUTO 35015KT 9SM BKN015 OVC060 M12/M14 A3028 RMK AO2 SNB17E27 P0000 FZRANO
KEAR 191120Z 1912/2012 36014G18KT P6SM SCT012 BKN080 
     FM191500 35012KT P6SM SCT100 
     FM192000 35006KT P6SM SKC 
     FM200000 VRB03KT P6SM SKC 
     FM200600 17007KT P6SM SCT200
       
KIBM 191115Z AUTO 32006KT 10SM SCT022 M02/M05 A3015 RMK AO2 T10251055
KLXN 191115Z AUTO 35011KT 10SM CLR M11/M14 A3027 RMK AO2 T11111139
KLNK 191054Z AUTO 36016G26KT 10SM OVC017 M12/M14 A3027 RMK AO2 PK WND 01028/1036 UPE00 SLP272 P0000 T11171144
KLNK 191123Z 1912/2012 36016G26KT P6SM OVC017 
     FM191400 35015KT P6SM BKN080 
     FM191600 35013KT P6SM BKN110 
     FM200200 VRB03KT P6SM FEW250
       
KMCK 191053Z AUTO 35013KT 10SM FEW018 BKN039 M09/M12 A3025 RMK AO2 SLP280 T10891122
KMCK 191120Z 1912/2012 34011KT P6SM OVC045 
     TEMPO 1914/1916 BKN020 
     FM191900 VRB05KT P6SM FEW250 
     FM200500 23006KT P6SM SKC
       
KAFK 191115Z AUTO 01014KT 10SM OVC013 M11/M14 A3019 RMK AO2 T11121143
KLBF 191053Z AUTO 35007KT 10SM CLR M12/M14 A3026 RMK AO2 SLP295 T11171144
KLBF 191123Z 1912/2012 36007KT P6SM FEW050 
     FM191500 VRB04KT P6SM FEW250
       
KOGA 191115Z AUTO 33005KT 10SM OVC023 M06/M11 A3024 RMK AO2 T10651109
KBTA 191115Z AUTO 35016KT 5SM BR SCT008 OVC012 M13/M15 A3025 RMK AO2 T11331155
KOMA 191052Z 36019KT 9SM -SN OVC020 M12/M15 A3026 RMK AO2 PK WND 01029/1006 SLP263 P0000 T11171150 $
KOMA 191123Z 1912/2012 36019KT P6SM -SN OVC020 
     FM191300 35015G23KT P6SM BKN040 
     FM191600 35014KT P6SM BKN080 
     FM200100 35006KT P6SM FEW250 
     FM201000 13006KT P6SM BKN250
       
KMLE 191115Z AUTO 35011G18KT 10SM OVC019 M11/M14 A3028 RMK AO2 T11131144
KONL 191115Z AUTO 34004KT 10SM SCT010 OVC065 M15/M17 A3033 RMK AO2 T11501169
KODX 191053Z AUTO 34014KT 10SM BKN016 OVC065 M13/M15 A3029 RMK AO2 SLP299 T11281150
KPMV 191115Z AUTO 35011G16KT 10SM -SN OVC013 M11/M13 A3022 RMK AO2 T11141135
KBFF 191121Z AUTO 14003KT 1/2SM FZFG VV002 M07/M07 A3020 RMK AO2 I1000 T10671067
KBFF 191120Z 1912/2012 14006KT 1 1/2SM BR OVC003 
     TEMPO 1913/1916 3SM BR SCT005 
     FM191600 29008KT P6SM SKC 
     FM191800 29011G20KT P6SM FEW200 
     FM192300 28014KT P6SM BKN200
       
KSNY 191130Z AUTO 36004KT 6SM BR OVC003 M07/M08 A3018 RMK AO2 T10721083
KSNY 191120Z 1912/2012 03005KT P6SM BKN004 
     TEMPO 1912/1914 1SM BR VV003 
     FM191700 30013G22KT P6SM FEW250 
     FM200100 30011KT P6SM SCT200
       
KTQE 191105Z AUTO 35024KT 6SM BR SCT012 M14/M17 A3032 RMK AO2 PK WND 35029/1103 T11441167 $
KTIF 191115Z AUTO 33004KT 10SM SCT010 M14/M16 A3027 RMK AO2 T11421160
KVTN 191052Z AUTO 34004KT 10SM CLR M17/M19 A3030 RMK AO2 SLP320 T11671189 $
KVTN 191123Z 1912/2012 VRB03KT P6SM SCT250 
     FM200000 14006KT P6SM SCT250 
     FM200400 17006KT P6SM SCT250 
     FM200500 19007KT P6SM BKN250 
     FM201100 28007KT P6SM BKN110
       
KAHQ 191115Z AUTO 35015KT 10SM SCT095 M13/M15 A3029 RMK AO2 T11301152
KLCG 191115Z AUTO 35014G17KT 10SM OVC090 M15/M19 A3032 RMK AO2 T11461186
KJYR 191115Z AUTO 00000KT 10SM BKN007 OVC014 M12/M13 A3026 RMK AO2